createdAt,value
2023-06-22T00:00:15.876Z,3.65
2023-06-22T00:02:42.458Z,3.38
2023-06-22T00:05:09.138Z,3.08
2023-06-22T00:07:35.685Z,3.25
2023-06-22T00:10:02.254Z,3.03
2023-06-22T00:12:28.794Z,2.90
2023-06-22T00:14:55.442Z,3.08
2023-06-22T00:17:22.066Z,3.20
2023-06-22T00:19:49.138Z,3.88
2023-06-22T00:22:15.755Z,4.28
2023-06-22T00:24:42.910Z,3.85
2023-06-22T00:27:09.552Z,4.38
2023-06-22T00:29:36.103Z,6.65
2023-06-22T00:32:02.724Z,5.95
2023-06-22T00:34:29.334Z,6.03
2023-06-22T00:36:55.903Z,6.05
2023-06-22T00:39:22.460Z,5.57
2023-06-22T00:41:49.026Z,6.05
2023-06-22T00:44:15.624Z,7.10
2023-06-22T00:46:42.188Z,6.47
2023-06-22T00:49:08.919Z,6.53
2023-06-22T00:51:39.156Z,7.15
2023-06-22T00:54:06.320Z,6.93
2023-06-22T00:56:33.571Z,6.43
2023-06-22T00:59:01.574Z,8.18
2023-06-22T01:01:28.205Z,7.07
2023-06-22T01:03:58.634Z,6.88
2023-06-22T01:06:39.686Z,7.15
2023-06-22T01:09:17.090Z,7.28
2023-06-22T01:11:49.949Z,7.72
2023-06-22T01:14:28.277Z,7.55
2023-06-22T01:16:57.671Z,7.85
2023-06-22T01:19:36.073Z,7.60
2023-06-22T01:22:04.938Z,8.02
2023-06-22T01:24:42.885Z,7.93
2023-06-22T01:27:30.147Z,7.55
2023-06-22T01:30:01.591Z,8.00
2023-06-22T01:32:43.690Z,8.05
2023-06-22T01:35:11.916Z,7.63
2023-06-22T01:37:39.884Z,7.75
2023-06-22T01:40:11.127Z,7.95
2023-06-22T01:42:39.245Z,8.80
2023-06-22T01:45:07.992Z,8.77
2023-06-22T01:47:35.465Z,8.68
2023-06-22T01:50:02.415Z,9.05
2023-06-22T01:52:29.136Z,9.55
2023-06-22T01:54:55.711Z,7.80
2023-06-22T01:57:22.431Z,7.95
2023-06-22T02:00:08.666Z,9.13
2023-06-22T02:02:41.878Z,9.48
2023-06-22T02:05:13.466Z,8.88
2023-06-22T02:07:47.682Z,9.05
2023-06-22T02:10:19.562Z,7.65
2023-06-22T02:12:47.137Z,8.77
2023-06-22T02:15:15.255Z,8.35
2023-06-22T02:17:45.994Z,8.35
2023-06-22T02:20:14.574Z,10.90
2023-06-22T02:22:41.640Z,10.05
2023-06-22T02:25:08.701Z,10.25
2023-06-22T02:27:35.315Z,10.40
2023-06-22T02:30:02.027Z,11.00
2023-06-22T02:32:28.581Z,13.18
2023-06-22T02:34:55.221Z,11.82
2023-06-22T02:37:21.834Z,11.13
2023-06-22T02:39:48.717Z,11.30
2023-06-22T02:42:16.394Z,10.13
2023-06-22T02:44:43.011Z,11.40
2023-06-22T02:47:09.598Z,13.85
2023-06-22T02:53:17.240Z,13.55
2023-06-22T02:55:43.838Z,14.65
2023-06-22T02:58:10.377Z,15.75
2023-06-22T03:00:37.017Z,15.73
2023-06-22T03:03:03.766Z,16.27
2023-06-22T03:05:30.428Z,16.67
2023-06-22T03:07:57.059Z,16.42
2023-06-22T03:10:23.643Z,15.13
2023-06-22T03:12:50.274Z,15.95
2023-06-22T03:15:18.909Z,15.65
2023-06-22T03:17:46.826Z,13.40
2023-06-22T03:20:13.616Z,15.05
2023-06-22T03:22:41.914Z,14.95
2023-06-22T03:25:14.613Z,15.05
2023-06-22T03:27:42.337Z,14.27
2023-06-22T03:30:10.983Z,14.77
2023-06-22T03:32:37.717Z,14.20
2023-06-22T03:35:05.139Z,12.52
2023-06-22T03:37:33.122Z,13.05
2023-06-22T03:39:59.719Z,14.23
2023-06-22T03:42:27.488Z,13.02
2023-06-22T03:44:54.086Z,14.35
2023-06-22T03:47:20.669Z,13.25
2023-06-22T03:49:47.298Z,14.55
2023-06-22T03:52:13.928Z,12.82
2023-06-22T03:54:40.617Z,14.55
2023-06-22T03:57:07.389Z,13.77
2023-06-22T03:59:33.994Z,14.60
2023-06-22T04:02:00.691Z,13.82
2023-06-22T04:04:27.519Z,14.35
2023-06-22T04:06:54.346Z,13.10
2023-06-22T04:09:22.644Z,14.55
2023-06-22T04:11:49.266Z,13.90
2023-06-22T04:14:15.838Z,13.90
2023-06-22T04:16:42.425Z,13.63
2023-06-22T04:19:14.331Z,14.18
2023-06-22T04:21:41.754Z,15.82
2023-06-22T04:24:08.458Z,15.90
2023-06-22T04:26:38.046Z,14.52
2023-06-22T04:29:06.632Z,15.65
2023-06-22T04:31:37.994Z,15.45
2023-06-22T04:34:09.462Z,16.45
2023-06-22T04:36:41.547Z,15.00
2023-06-22T04:39:12.484Z,15.43
2023-06-22T04:41:43.788Z,16.38
2023-06-22T04:44:14.763Z,15.80
2023-06-22T04:46:41.704Z,16.52
2023-06-22T04:49:11.127Z,17.48
2023-06-22T04:51:42.567Z,19.15
2023-06-22T04:54:10.337Z,18.13
2023-06-22T04:56:37.154Z,19.42
2023-06-22T04:59:04.445Z,20.00
2023-06-22T05:01:32.637Z,19.83
2023-06-22T05:04:02.249Z,20.30
2023-06-22T05:06:29.401Z,21.10
2023-06-22T05:08:59.841Z,20.15
2023-06-22T05:11:29.588Z,18.77
2023-06-22T05:13:56.765Z,20.33
2023-06-22T05:16:27.468Z,18.70
2023-06-22T05:19:25.197Z,21.17
2023-06-22T05:21:51.761Z,21.73
2023-06-22T05:24:18.411Z,19.63
2023-06-22T05:26:45.024Z,19.52
2023-06-22T05:29:11.608Z,19.70
2023-06-22T05:31:38.264Z,17.13
2023-06-22T05:34:04.861Z,19.58
2023-06-22T05:36:31.650Z,20.27
2023-06-22T05:38:59.487Z,19.50
2023-06-22T05:41:26.113Z,19.35
2023-06-22T05:43:52.696Z,19.08
2023-06-22T05:46:20.314Z,20.15
2023-06-22T05:48:46.987Z,19.33
2023-06-22T05:51:13.662Z,18.60
2023-06-22T05:53:40.280Z,19.60
2023-06-22T05:56:06.933Z,19.90
2023-06-22T05:58:33.536Z,18.67
2023-06-22T06:01:01.784Z,19.60
2023-06-22T06:03:30.297Z,19.02
2023-06-22T06:05:57.227Z,18.63
2023-06-22T06:08:24.088Z,18.92
2023-06-22T06:10:50.863Z,18.30
2023-06-22T06:13:17.476Z,17.98
2023-06-22T06:15:44.168Z,18.95
2023-06-22T06:18:11.997Z,19.35
2023-06-22T06:20:38.858Z,18.50
2023-06-22T06:23:05.508Z,18.88
2023-06-22T06:25:44.428Z,19.52
2023-06-22T06:28:11.709Z,17.48
2023-06-22T06:30:38.373Z,18.30
2023-06-22T06:33:10.217Z,18.65
2023-06-22T06:35:37.159Z,18.45
2023-06-22T06:38:03.842Z,18.70
2023-06-22T06:40:31.084Z,18.10
2023-06-22T06:42:58.193Z,17.88
2023-06-22T06:45:25.641Z,16.33
2023-06-22T06:47:54.069Z,15.05
2023-06-22T06:50:23.807Z,16.38
2023-06-22T06:52:51.740Z,16.83
2023-06-22T06:55:18.730Z,13.77
2023-06-22T06:57:49.473Z,13.80
2023-06-22T07:00:16.700Z,13.93
2023-06-22T07:02:45.252Z,14.27
2023-06-22T07:05:13.786Z,13.63
2023-06-22T07:07:40.662Z,12.70
2023-06-22T07:10:07.741Z,15.00
2023-06-22T07:12:34.847Z,13.18
2023-06-22T07:15:06.476Z,14.30
2023-06-22T07:17:33.276Z,13.52
2023-06-22T07:20:00.014Z,13.85
2023-06-22T07:22:26.661Z,13.52
2023-06-22T07:24:53.419Z,13.73
2023-06-22T07:27:20.938Z,11.45
2023-06-22T07:29:47.594Z,12.45
2023-06-22T07:32:14.524Z,11.65
2023-06-22T07:34:41.398Z,11.68
2023-06-22T07:37:08.145Z,12.82
2023-06-22T07:39:34.758Z,11.32
2023-06-22T07:42:01.469Z,11.23
2023-06-22T07:44:28.138Z,12.02
2023-06-22T07:46:55.886Z,12.93
2023-06-22T07:49:22.617Z,12.02
2023-06-22T07:51:49.232Z,11.18
2023-06-22T07:54:17.139Z,10.45
2023-06-22T07:56:44.282Z,10.18
2023-06-22T07:59:10.989Z,11.77
2023-06-22T08:01:37.701Z,9.80
2023-06-22T08:04:04.717Z,10.30
2023-06-22T08:06:32.028Z,10.27
2023-06-22T08:09:00.295Z,9.05
2023-06-22T08:11:27.080Z,9.70
2023-06-22T08:13:53.891Z,8.55
2023-06-22T08:16:20.560Z,8.50
2023-06-22T08:18:49.940Z,9.82
2023-06-22T08:21:16.733Z,10.32
2023-06-22T08:23:43.350Z,9.30
2023-06-22T08:26:10.005Z,9.25
2023-06-22T08:28:37.434Z,8.50
2023-06-22T08:31:05.044Z,8.30
2023-06-22T08:33:32.527Z,9.52
2023-06-22T08:36:00.523Z,9.52
2023-06-22T08:38:27.250Z,9.18
2023-06-22T08:40:53.930Z,8.80
2023-06-22T08:43:21.632Z,10.10
2023-06-22T08:45:48.354Z,8.73
2023-06-22T08:48:15.474Z,9.07
2023-06-22T08:50:42.221Z,9.20
2023-06-22T08:53:09.256Z,9.02
2023-06-22T08:55:35.971Z,7.22
2023-06-22T08:58:02.571Z,7.78
2023-06-22T09:00:30.544Z,7.10
2023-06-22T09:03:00.097Z,6.53
2023-06-22T09:05:30.165Z,7.43
2023-06-22T09:07:59.890Z,7.13
2023-06-22T09:10:29.013Z,6.47
2023-06-22T09:12:55.940Z,7.85
2023-06-22T09:15:24.673Z,7.28
2023-06-22T09:17:51.399Z,8.05
2023-06-22T09:20:18.056Z,7.07
2023-06-22T09:22:44.861Z,6.72
2023-06-22T09:25:11.765Z,6.78
2023-06-22T09:27:38.346Z,6.25
2023-06-22T09:30:05.616Z,7.13
2023-06-22T09:32:32.286Z,6.40
2023-06-22T09:34:59.061Z,6.43
2023-06-22T09:37:25.776Z,6.05
2023-06-22T09:39:52.384Z,5.90
2023-06-22T09:42:19.034Z,6.15
2023-06-22T09:44:45.594Z,5.75
2023-06-22T09:47:12.209Z,6.10
2023-06-22T09:49:47.864Z,5.28
2023-06-22T09:52:15.295Z,5.45
2023-06-22T09:54:41.952Z,5.75
2023-06-22T09:57:08.573Z,5.82
2023-06-22T09:59:35.257Z,6.28
2023-06-22T10:02:02.129Z,5.93
2023-06-22T10:04:28.881Z,6.03
2023-06-22T10:06:55.692Z,5.88
2023-06-22T10:09:22.630Z,5.10
2023-06-22T10:11:49.367Z,6.57
2023-06-22T10:14:18.093Z,5.90
2023-06-22T10:16:44.783Z,6.55
2023-06-22T10:19:11.397Z,7.57
2023-06-22T10:21:38.111Z,7.20
2023-06-22T10:24:07.491Z,7.05
2023-06-22T10:26:34.744Z,8.40
2023-06-22T10:31:42.180Z,7.57
2023-06-22T10:34:20.335Z,8.57
2023-06-22T10:36:49.776Z,7.63
2023-06-22T10:39:16.748Z,7.25
2023-06-22T10:41:43.574Z,7.78
2023-06-22T10:44:10.332Z,7.25
2023-06-22T10:46:39.533Z,7.93
2023-06-22T10:49:06.462Z,5.82
2023-06-22T10:51:33.484Z,5.80
2023-06-22T10:54:02.764Z,5.00
2023-06-22T10:56:31.179Z,5.45
2023-06-22T10:59:23.849Z,8.00
2023-06-22T11:02:00.124Z,7.07
2023-06-22T11:04:32.196Z,8.02
2023-06-22T11:07:07.631Z,8.32
2023-06-22T11:09:36.475Z,9.00
2023-06-22T11:12:08.568Z,8.27
2023-06-22T11:14:42.476Z,7.40
2023-06-22T11:17:09.170Z,8.55
2023-06-22T11:19:36.025Z,8.10
2023-06-22T11:22:02.857Z,8.23
2023-06-22T11:24:29.626Z,8.45
2023-06-22T11:27:00.060Z,8.63
2023-06-22T11:29:41.098Z,9.02
2023-06-22T11:32:12.473Z,8.60
2023-06-22T11:34:41.375Z,8.15
2023-06-22T11:37:08.088Z,10.05
2023-06-22T11:39:41.617Z,8.88
2023-06-22T11:42:14.265Z,8.18
2023-06-22T11:44:40.988Z,7.72
2023-06-22T11:47:07.911Z,7.43
2023-06-22T11:49:34.580Z,5.15
2023-06-22T11:52:01.267Z,4.20
2023-06-22T11:54:27.886Z,3.58
2023-06-22T11:56:54.574Z,3.97
2023-06-22T11:59:23.491Z,4.68
2023-06-22T12:01:52.276Z,4.45
2023-06-22T12:04:19.272Z,4.13
2023-06-22T12:06:48.321Z,3.50
2023-06-22T12:09:17.125Z,4.15
2023-06-22T12:11:46.867Z,3.30
2023-06-22T12:17:01.884Z,3.17
2023-06-22T12:19:31.397Z,3.83
2023-06-22T12:22:06.358Z,3.35
2023-06-22T12:24:32.969Z,3.00
2023-06-22T12:26:59.733Z,3.15
2023-06-22T12:29:26.365Z,3.38
2023-06-22T12:31:53.065Z,3.10
2023-06-22T12:34:19.658Z,3.53
2023-06-22T12:36:48.444Z,2.97
2023-06-22T12:39:15.515Z,3.83
2023-06-22T12:41:42.115Z,4.07
2023-06-22T12:44:08.757Z,4.03
2023-06-22T12:46:38.805Z,3.95
2023-06-22T12:49:06.150Z,3.97
2023-06-22T12:51:32.944Z,3.58
2023-06-22T12:53:59.645Z,3.78
2023-06-22T12:56:26.312Z,4.38
2023-06-22T12:58:52.920Z,4.43
2023-06-22T13:01:19.623Z,4.18
2023-06-22T13:03:46.325Z,4.40
2023-06-22T13:06:12.917Z,3.88
2023-06-22T13:11:09.130Z,4.80
2023-06-22T13:13:35.784Z,4.88
2023-06-22T13:16:02.571Z,5.30
2023-06-22T13:18:29.157Z,4.65
2023-06-22T13:20:55.903Z,5.25
2023-06-22T13:23:22.873Z,5.10
2023-06-22T13:25:49.518Z,5.20
2023-06-22T13:28:27.904Z,4.82
2023-06-22T13:30:55.681Z,5.40
2023-06-22T13:33:22.386Z,5.20
2023-06-22T13:35:49.076Z,5.90
2023-06-22T13:38:15.706Z,4.85
2023-06-22T13:40:42.335Z,5.15
2023-06-22T13:43:08.989Z,5.07
2023-06-22T13:45:35.979Z,5.15
2023-06-22T13:48:02.865Z,5.03
2023-06-22T13:50:31.346Z,4.85
2023-06-22T13:52:58.193Z,5.03
2023-06-22T13:55:25.014Z,4.57
2023-06-22T13:57:52.543Z,4.97
2023-06-22T14:00:19.651Z,5.07
2023-06-22T14:02:46.818Z,4.47
2023-06-22T14:05:13.404Z,4.90
2023-06-22T14:07:40.725Z,4.80
2023-06-22T14:10:08.205Z,4.53
2023-06-22T14:12:34.890Z,5.70
2023-06-22T14:15:01.514Z,4.80
2023-06-22T14:17:28.243Z,5.15
2023-06-22T14:19:55.327Z,4.43
2023-06-22T14:22:22.863Z,4.97
2023-06-22T14:24:50.705Z,4.88
2023-06-22T14:27:20.574Z,5.60
2023-06-22T14:29:47.201Z,5.45
2023-06-22T14:32:13.766Z,6.00
2023-06-22T14:34:40.605Z,5.90
2023-06-22T14:37:14.138Z,5.30
2023-06-22T14:39:40.809Z,6.97
2023-06-22T14:42:07.670Z,6.18
2023-06-22T14:44:34.406Z,5.70
2023-06-22T14:47:00.999Z,7.28
2023-06-22T14:49:27.752Z,6.97
2023-06-22T14:51:54.373Z,6.78
2023-06-22T14:54:21.278Z,6.50
2023-06-22T14:56:49.355Z,7.55
2023-06-22T14:59:16.056Z,7.82
2023-06-22T15:01:43.508Z,7.25
2023-06-22T15:04:11.462Z,7.60
2023-06-22T15:06:38.044Z,6.80
2023-06-22T15:09:04.627Z,8.25
2023-06-22T15:11:31.273Z,8.10
2023-06-22T15:14:00.875Z,7.30
2023-06-22T15:16:27.673Z,7.45
2023-06-22T15:18:54.248Z,7.65
2023-06-22T15:21:21.084Z,7.68
2023-06-22T15:23:47.722Z,7.75
2023-06-22T15:26:14.324Z,8.10
2023-06-22T15:28:40.917Z,7.93
2023-06-22T15:31:07.962Z,7.78
2023-06-22T15:33:34.797Z,8.43
2023-06-22T15:36:05.915Z,9.57
2023-06-22T15:38:33.410Z,8.77
2023-06-22T15:41:00.042Z,8.57
2023-06-22T15:43:26.669Z,7.90
2023-06-22T15:45:55.364Z,7.97
2023-06-22T15:48:22.729Z,7.95
2023-06-22T15:50:49.474Z,7.78
2023-06-22T15:53:16.205Z,8.10
2023-06-22T15:55:42.868Z,7.45
2023-06-22T15:58:10.858Z,8.80
2023-06-22T16:00:37.677Z,8.10
2023-06-22T16:03:04.571Z,9.05
2023-06-22T16:05:31.528Z,8.27
2023-06-22T16:07:58.223Z,7.82
2023-06-22T16:10:24.962Z,7.40
2023-06-22T16:12:53.324Z,9.38
2023-06-22T16:15:22.903Z,8.68
2023-06-22T16:17:49.500Z,7.78
2023-06-22T16:20:18.112Z,8.32
2023-06-22T16:22:47.189Z,8.38
2023-06-22T16:25:14.507Z,8.40
2023-06-22T16:27:41.145Z,8.38
2023-06-22T16:30:08.615Z,9.98
2023-06-22T16:32:35.293Z,7.88
2023-06-22T16:35:02.043Z,9.02
2023-06-22T16:37:28.914Z,9.57
2023-06-22T16:39:55.707Z,9.18
2023-06-22T16:42:22.452Z,9.77
2023-06-22T16:44:49.314Z,9.73
2023-06-22T16:47:15.928Z,9.85
2023-06-22T16:49:42.571Z,9.52
2023-06-22T16:52:09.338Z,9.27
2023-06-22T16:54:40.002Z,9.02
2023-06-22T16:57:16.098Z,9.18
2023-06-22T16:59:45.396Z,8.40
2023-06-22T17:02:20.276Z,8.40
2023-06-22T17:04:47.173Z,7.47
2023-06-22T17:07:18.582Z,6.47
2023-06-22T17:09:47.979Z,6.10
2023-06-22T17:12:15.456Z,6.00
2023-06-22T17:14:46.440Z,4.68
2023-06-22T17:17:16.641Z,4.80
2023-06-22T17:19:43.360Z,5.10
2023-06-22T17:22:09.965Z,5.00
2023-06-22T17:24:37.265Z,5.10
2023-06-22T17:27:04.240Z,4.15
2023-06-22T17:29:32.742Z,4.68
2023-06-22T17:31:59.938Z,4.68
2023-06-22T17:34:30.641Z,4.32
2023-06-22T17:36:59.134Z,3.72
2023-06-22T17:39:29.565Z,4.18
2023-06-22T17:41:56.474Z,3.30
2023-06-22T17:44:27.706Z,3.63
2023-06-22T17:46:56.385Z,2.47
2023-06-22T17:49:27.880Z,3.05
2023-06-22T17:51:54.552Z,2.63
2023-06-22T17:54:31.105Z,2.28
2023-06-22T17:57:17.695Z,2.22
2023-06-22T17:59:51.523Z,1.75
2023-06-22T18:02:24.682Z,1.70
2023-06-22T18:04:51.697Z,1.70
2023-06-22T18:07:18.593Z,1.50
2023-06-22T18:09:46.484Z,1.35
2023-06-22T18:12:13.955Z,1.38
2023-06-22T18:14:43.495Z,1.40
2023-06-22T18:17:10.846Z,1.27
2023-06-22T18:19:39.336Z,1.00
2023-06-22T18:22:06.481Z,1.08
2023-06-22T18:24:34.366Z,0.95
2023-06-22T18:27:03.464Z,0.80
2023-06-22T18:29:31.847Z,1.00
2023-06-22T18:31:58.647Z,0.90
2023-06-22T18:34:26.574Z,0.95
2023-06-22T18:36:56.031Z,1.02
2023-06-22T18:39:23.666Z,0.73
2023-06-22T18:41:53.666Z,1.00
2023-06-22T18:44:27.132Z,0.90
2023-06-22T18:47:02.354Z,0.70
2023-06-22T18:49:34.382Z,0.90
2023-06-22T18:52:17.509Z,0.80
2023-06-22T18:54:50.769Z,0.90
2023-06-22T18:57:19.042Z,1.20
2023-06-22T18:59:47.044Z,0.75
2023-06-22T19:02:49.969Z,0.80
2023-06-22T19:05:20.431Z,0.95
2023-06-22T19:07:53.622Z,0.70
2023-06-22T19:10:27.821Z,0.82
2023-06-22T19:12:56.201Z,1.17
2023-06-22T19:15:30.891Z,0.80
2023-06-22T19:18:02.727Z,0.90
2023-06-22T19:20:35.186Z,1.10
2023-06-22T19:23:01.771Z,1.20
2023-06-22T19:25:31.642Z,1.27
2023-06-22T19:27:59.484Z,0.90
2023-06-22T19:30:26.538Z,1.60
2023-06-22T19:32:53.333Z,1.38
2023-06-22T19:35:21.616Z,1.10
2023-06-22T19:37:49.017Z,1.90
2023-06-22T19:40:22.294Z,1.90
2023-06-22T19:42:54.415Z,1.73
2023-06-22T19:45:21.084Z,1.70
2023-06-22T19:47:47.747Z,1.65
2023-06-22T19:50:15.404Z,1.63
2023-06-22T19:52:43.658Z,1.67
2023-06-22T19:55:15.191Z,1.83
2023-06-22T19:57:47.688Z,1.67
2023-06-22T20:00:21.672Z,2.13
2023-06-22T20:02:54.041Z,1.77
2023-06-22T20:05:22.592Z,1.40
2023-06-22T20:07:49.223Z,1.30
2023-06-22T20:10:18.943Z,1.48
2023-06-22T20:12:53.337Z,1.25
2023-06-22T20:15:28.297Z,1.33
2023-06-22T20:18:02.164Z,1.98
2023-06-22T20:20:34.756Z,1.80
2023-06-22T20:23:03.099Z,1.40
2023-06-22T20:25:36.516Z,1.42
2023-06-22T20:28:20.348Z,1.30
2023-06-22T20:31:02.937Z,1.95
2023-06-22T20:33:29.916Z,1.30
2023-06-22T20:35:56.574Z,1.10
2023-06-22T20:38:26.107Z,1.42
2023-06-22T20:40:56.693Z,1.60
2023-06-22T20:43:25.193Z,1.58
2023-06-22T20:45:55.739Z,1.60
2023-06-22T20:48:37.951Z,1.70
2023-06-22T20:51:06.044Z,1.42
2023-06-22T20:53:33.350Z,1.98
2023-06-22T20:56:00.302Z,1.60
2023-06-22T20:58:27.150Z,2.10
2023-06-22T21:00:56.304Z,1.40
2023-06-22T21:03:23.114Z,1.60
2023-06-22T21:05:50.440Z,1.58
2023-06-22T21:08:17.302Z,1.88
2023-06-22T21:10:44.350Z,1.38
2023-06-22T21:13:11.762Z,1.75
2023-06-22T21:15:38.822Z,1.80
2023-06-22T21:18:05.935Z,1.48
2023-06-22T21:20:33.033Z,1.58
2023-06-22T21:23:00.108Z,1.48
2023-06-22T21:25:27.458Z,1.45
2023-06-22T21:27:54.481Z,1.38
2023-06-22T21:30:22.331Z,1.58
2023-06-22T21:32:50.302Z,1.92
2023-06-22T21:35:17.377Z,1.42
2023-06-22T21:37:46.171Z,1.25
2023-06-22T21:40:13.202Z,1.70
2023-06-22T21:42:40.534Z,1.40
2023-06-22T21:45:07.442Z,1.20
2023-06-22T21:47:34.563Z,1.60
2023-06-22T21:50:01.769Z,1.80
2023-06-22T21:52:30.885Z,2.13
2023-06-22T21:54:58.066Z,1.35
2023-06-22T21:57:28.194Z,1.10
2023-06-22T21:59:55.749Z,1.60
2023-06-22T22:02:24.096Z,1.52
2023-06-22T22:04:53.459Z,1.45
2023-06-22T22:07:20.437Z,1.42
2023-06-22T22:09:47.331Z,1.40
2023-06-22T22:12:16.055Z,1.52
2023-06-22T22:14:42.679Z,1.40
2023-06-22T22:17:09.890Z,1.65
2023-06-22T22:19:37.019Z,1.33
2023-06-22T22:22:05.006Z,1.58
2023-06-22T22:24:32.367Z,1.33
2023-06-22T22:26:59.249Z,1.50
2023-06-22T22:29:28.890Z,1.23
2023-06-22T22:31:55.941Z,1.65
2023-06-22T22:34:22.601Z,1.20
2023-06-22T22:36:49.266Z,1.40
2023-06-22T22:39:38.582Z,1.90
2023-06-22T22:42:06.447Z,1.10
2023-06-22T22:44:33.075Z,1.63
2023-06-22T22:47:00.091Z,1.52
2023-06-22T22:49:26.994Z,1.50
2023-06-22T22:51:53.929Z,1.50
2023-06-22T22:54:20.595Z,1.20
2023-06-22T22:56:47.288Z,1.63
2023-06-22T22:59:23.230Z,1.83
2023-06-22T23:01:49.839Z,1.73
2023-06-22T23:04:19.497Z,1.85
2023-06-22T23:06:46.237Z,1.42
2023-06-22T23:09:12.823Z,1.90
2023-06-22T23:11:39.457Z,1.90
2023-06-22T23:14:06.101Z,1.90
2023-06-22T23:16:32.949Z,2.05
2023-06-22T23:18:59.559Z,2.50
2023-06-22T23:21:31.878Z,2.03
2023-06-22T23:23:58.648Z,1.85
2023-06-22T23:26:26.389Z,2.00
2023-06-22T23:28:53.045Z,1.85
2023-06-22T23:31:19.855Z,1.77
2023-06-22T23:33:46.568Z,1.75
2023-06-22T23:36:13.161Z,1.80
2023-06-22T23:38:40.386Z,2.00
2023-06-22T23:41:11.769Z,2.10
2023-06-22T23:43:41.474Z,2.10
2023-06-22T23:46:08.514Z,2.75
2023-06-22T23:48:35.147Z,2.17
2023-06-22T23:51:01.809Z,2.33
2023-06-22T23:53:30.913Z,2.88
2023-06-22T23:55:57.704Z,2.38
2023-06-22T23:58:25.492Z,2.47
